Time,TemperatureF,DewpointF,PressureIn,WindDirection,WindDirectionDegrees,WindSpeedMPH,WindSpeedGustMPH,Humidity,HourlyPrecipIn,Conditions,Clouds,dailyrainin,SoftwareType,DateUTC
2013-12-30 00:02:00,46.4,42.1,32.78,NNW,338,3.1,7.6,85,0.00,,,0.00,pywws,2013-12-30 00:02:00,
2013-12-30 00:07:00,46.4,41.8,32.73,SW,225,2.2,6.0,84,0.00,,,0.00,pywws,2013-12-30 00:07:00,
2013-12-30 00:12:00,46.8,42.2,32.72,South,180,3.8,7.6,84,0.00,,,0.00,pywws,2013-12-30 00:12:00,
2013-12-30 00:17:00,46.8,42.2,32.71,SE,135,1.6,3.8,84,0.00,,,0.00,pywws,2013-12-30 00:17:00,
2013-12-30 00:22:00,46.6,42.0,32.70,SW,225,3.1,6.9,84,0.00,,,0.00,pywws,2013-12-30 00:22:00,
2013-12-30 00:32:00,46.8,42.2,32.68,SE,135,3.1,5.4,84,0.00,,,0.00,pywws,2013-12-30 00:32:00,
2013-12-30 00:37:00,46.8,42.2,32.70,South,180,2.2,4.5,84,0.00,,,0.00,pywws,2013-12-30 00:37:00,
2013-12-30 00:42:00,46.9,42.4,32.65,South,180,2.2,4.5,84,0.00,,,0.00,pywws,2013-12-30 00:42:00,
2013-12-30 00:47:00,46.9,42.4,32.66,SW,225,5.4,11.4,84,0.00,,,0.00,pywws,2013-12-30 00:47:00,
2013-12-30 00:52:00,46.9,42.4,32.65,NW,315,3.8,6.9,84,0.00,,,0.00,pywws,2013-12-30 00:52:00,
2013-12-30 01:02:00,47.1,42.5,32.64,SW,225,3.1,5.4,84,0.00,,,0.00,pywws,2013-12-30 01:02:00,
2013-12-30 01:07:00,46.9,42.4,32.61,South,180,3.8,8.3,84,0.00,,,0.00,pywws,2013-12-30 01:07:00,
2013-12-30 01:12:00,47.1,42.5,32.60,South,180,3.8,9.2,84,0.00,,,0.00,pywws,2013-12-30 01:12:00,
2013-12-30 01:17:00,47.3,42.7,32.59,SE,135,4.5,13.0,84,0.00,,,0.00,pywws,2013-12-30 01:17:00,
2013-12-30 01:22:00,47.3,42.7,32.59,South,180,3.8,8.3,84,0.00,,,0.00,pywws,2013-12-30 01:22:00,
2013-12-30 01:32:00,47.5,42.9,32.58,SW,225,1.6,3.8,84,0.00,,,0.00,pywws,2013-12-30 01:32:00,
2013-12-30 01:37:00,47.5,42.9,32.57,SE,135,3.1,8.3,84,0.00,,,0.00,pywws,2013-12-30 01:37:00,
2013-12-30 01:42:00,47.7,43.1,32.57,South,180,1.6,3.1,84,0.00,,,0.00,pywws,2013-12-30 01:42:00,
2013-12-30 01:47:00,47.7,43.1,32.56,South,180,3.1,6.0,84,0.00,,,0.00,pywws,2013-12-30 01:47:00,
2013-12-30 01:52:00,47.8,43.2,32.55,South,180,3.1,11.4,84,0.00,,,0.00,pywws,2013-12-30 01:52:00,
2013-12-30 02:02:00,47.8,43.2,32.55,South,180,3.1,6.9,84,0.00,,,0.00,pywws,2013-12-30 02:02:00,
2013-12-30 02:07:00,47.8,43.2,32.52,SE,135,2.2,6.0,84,0.00,,,0.00,pywws,2013-12-30 02:07:00,
2013-12-30 02:12:00,48.0,43.4,32.52,South,180,4.5,9.8,84,0.00,,,0.00,pywws,2013-12-30 02:12:00,
2013-12-30 02:17:00,48.2,43.6,32.52,South,180,5.4,12.1,84,0.00,,,0.00,pywws,2013-12-30 02:17:00,
2013-12-30 02:22:00,48.2,43.6,32.50,South,180,3.8,9.8,84,0.00,,,0.00,pywws,2013-12-30 02:22:00,
2013-12-30 02:32:00,48.2,43.9,32.49,South,180,2.2,3.8,85,0.00,,,0.00,pywws,2013-12-30 02:32:00,
2013-12-30 02:37:00,48.2,43.9,32.49,SSW,202,1.6,3.8,85,0.00,,,0.00,pywws,2013-12-30 02:37:00,
2013-12-30 02:42:00,48.2,43.9,32.47,South,180,2.2,3.8,85,0.00,,,0.00,pywws,2013-12-30 02:42:00,
2013-12-30 02:47:00,48.2,43.9,32.47,SW,225,2.2,9.2,85,0.00,,,0.00,pywws,2013-12-30 02:47:00,
2013-12-30 02:52:00,48.2,43.9,32.46,South,180,3.1,5.4,85,0.00,,,0.00,pywws,2013-12-30 02:52:00,
2013-12-30 03:02:00,48.2,44.2,32.45,SE,135,3.8,8.3,86,0.00,,,0.00,pywws,2013-12-30 03:02:00,
2013-12-30 03:07:00,48.2,43.9,32.43,South,180,5.4,11.4,85,0.00,,,0.00,pywws,2013-12-30 03:07:00,
2013-12-30 03:12:00,48.0,44.0,32.43,SE,135,3.8,10.7,86,0.00,,,0.00,pywws,2013-12-30 03:12:00,
2013-12-30 03:17:00,48.4,44.4,32.41,South,180,3.1,4.5,86,0.00,,,0.00,pywws,2013-12-30 03:17:00,
2013-12-30 03:22:00,48.2,44.2,32.40,NW,315,5.4,11.4,86,0.00,,,0.00,pywws,2013-12-30 03:22:00,
2013-12-30 03:32:00,48.2,44.5,32.39,South,180,3.1,5.4,87,0.00,,,0.00,pywws,2013-12-30 03:32:00,
2013-12-30 03:37:00,48.4,44.7,32.38,SW,225,3.8,6.9,87,0.00,,,0.00,pywws,2013-12-30 03:37:00,
2013-12-30 03:42:00,48.4,44.7,32.37,SE,135,3.8,9.8,87,0.00,,,0.00,pywws,2013-12-30 03:42:00,
2013-12-30 03:47:00,48.6,44.9,32.36,West,270,3.1,9.2,87,0.00,,,0.00,pywws,2013-12-30 03:47:00,
2013-12-30 03:52:00,48.4,44.7,32.37,South,180,3.8,8.3,87,0.00,,,0.00,pywws,2013-12-30 03:52:00,
2013-12-30 04:02:00,48.6,44.9,32.36,SW,225,2.2,6.0,87,0.00,,,0.00,pywws,2013-12-30 04:02:00,
2013-12-30 04:07:00,48.6,44.9,32.36,NW,315,4.5,9.2,87,0.00,,,0.00,pywws,2013-12-30 04:07:00,
2013-12-30 04:12:00,48.7,45.0,32.36,SE,135,4.5,11.4,87,0.00,,,0.00,pywws,2013-12-30 04:12:00,
2013-12-30 04:17:00,48.9,45.2,32.36,SE,135,3.1,8.3,87,0.00,,,0.00,pywws,2013-12-30 04:17:00,
2013-12-30 04:22:00,48.9,45.2,32.34,SE,135,3.8,7.6,87,0.00,,,0.00,pywws,2013-12-30 04:22:00,
2013-12-30 04:32:00,48.9,45.2,32.32,West,270,3.1,4.5,87,0.00,,,0.00,pywws,2013-12-30 04:32:00,
2013-12-30 04:37:00,49.1,45.4,32.31,SE,135,3.1,6.0,87,0.00,,,0.00,pywws,2013-12-30 04:37:00,
2013-12-30 04:42:00,48.9,45.2,32.34,WNW,292,5.4,11.4,87,0.00,,,0.00,pywws,2013-12-30 04:42:00,
2013-12-30 04:47:00,48.9,45.2,32.32,South,180,5.4,9.2,87,0.00,,,0.00,pywws,2013-12-30 04:47:00,
2013-12-30 04:52:00,48.9,45.5,32.32,NW,315,3.8,10.7,88,0.00,,,0.00,pywws,2013-12-30 04:52:00,
2013-12-30 05:02:00,49.1,45.7,32.32,South,180,5.4,11.4,88,0.00,,,0.00,pywws,2013-12-30 05:02:00,
2013-12-30 05:07:00,49.1,45.7,32.29,SSW,202,3.1,6.0,88,0.00,,,0.00,pywws,2013-12-30 05:07:00,
2013-12-30 05:12:00,49.1,45.7,32.29,South,180,3.1,5.4,88,0.00,,,0.00,pywws,2013-12-30 05:12:00,
2013-12-30 05:17:00,49.1,45.7,32.28,South,180,3.8,7.6,88,0.00,,,0.00,pywws,2013-12-30 05:17:00,
2013-12-30 05:22:00,49.1,45.7,32.28,SW,225,3.8,8.3,88,0.00,,,0.00,pywws,2013-12-30 05:22:00,
2013-12-30 05:32:00,49.1,46.0,32.25,SW,225,4.5,7.6,89,0.00,,,0.00,pywws,2013-12-30 05:32:00,
2013-12-30 05:37:00,49.3,46.2,32.21,SE,135,1.6,4.5,89,0.00,,,0.00,pywws,2013-12-30 05:37:00,
2013-12-30 05:42:00,49.1,46.3,32.22,NW,315,1.6,5.4,90,0.00,,,0.00,pywws,2013-12-30 05:42:00,
2013-12-30 05:47:00,49.3,46.5,32.23,NE,45,1.6,3.1,90,0.00,,,0.00,pywws,2013-12-30 05:47:00,
2013-12-30 05:52:00,49.3,46.5,32.22,South,180,3.1,5.4,90,0.00,,,0.00,pywws,2013-12-30 05:52:00,
2013-12-30 06:02:00,49.3,46.2,32.21,South,180,2.2,5.4,89,0.00,,,0.00,pywws,2013-12-30 06:02:00,
2013-12-30 06:07:00,49.3,46.2,32.17,SW,225,2.2,5.4,89,0.00,,,0.00,pywws,2013-12-30 06:07:00,
2013-12-30 06:12:00,49.6,46.2,32.17,West,270,3.1,7.6,88,0.00,,,0.00,pywws,2013-12-30 06:12:00,
2013-12-30 06:17:00,49.6,46.2,32.15,SW,225,3.8,9.2,88,0.00,,,0.00,pywws,2013-12-30 06:17:00,
2013-12-30 06:22:00,50.0,46.3,32.14,West,270,3.8,13.6,87,0.00,,,0.00,pywws,2013-12-30 06:22:00,
2013-12-30 06:32:00,50.2,46.5,32.13,South,180,3.1,5.4,87,0.00,,,0.00,pywws,2013-12-30 06:32:00,
2013-12-30 06:37:00,50.4,46.3,32.11,West,270,2.2,5.4,86,0.00,,,0.00,pywws,2013-12-30 06:37:00,
2013-12-30 06:42:00,50.4,46.0,32.10,SSW,202,4.5,8.3,85,0.00,,,0.00,pywws,2013-12-30 06:42:00,
2013-12-30 06:47:00,50.7,46.4,32.08,South,180,3.1,6.0,85,0.00,,,0.00,pywws,2013-12-30 06:47:00,
2013-12-30 06:52:00,50.5,46.2,32.07,SW,225,4.5,11.4,85,0.00,,,0.00,pywws,2013-12-30 06:52:00,
2013-12-30 07:02:00,50.7,46.1,32.08,SE,135,3.1,6.9,84,0.00,,,0.00,pywws,2013-12-30 07:02:00,
2013-12-30 07:07:00,50.9,46.2,32.04,SW,225,3.8,9.2,84,0.00,,,0.00,pywws,2013-12-30 07:07:00,
2013-12-30 07:12:00,51.1,46.1,32.03,South,180,3.8,9.2,83,0.00,,,0.00,pywws,2013-12-30 07:12:00,
2013-12-30 07:17:00,50.9,46.2,32.03,South,180,5.4,10.7,84,0.00,,,0.00,pywws,2013-12-30 07:17:00,
2013-12-30 07:22:00,50.7,46.4,32.00,South,180,3.8,6.0,85,0.00,,,0.00,pywws,2013-12-30 07:22:00,
2013-12-30 07:32:00,50.5,46.5,31.99,SW,225,5.4,12.1,86,0.00,,,0.00,pywws,2013-12-30 07:32:00,
2013-12-30 07:37:00,50.5,46.8,31.96,SE,135,4.5,15.9,87,0.00,,,0.00,pywws,2013-12-30 07:37:00,
2013-12-30 07:42:00,50.7,46.7,31.92,South,180,2.2,5.4,86,0.00,,,0.00,pywws,2013-12-30 07:42:00,
2013-12-30 07:47:00,50.5,46.5,31.91,South,180,3.8,9.8,86,0.00,,,0.00,pywws,2013-12-30 07:47:00,
2013-12-30 07:52:00,50.5,46.5,31.90,SW,225,5.4,8.3,86,0.00,,,0.00,pywws,2013-12-30 07:52:00,
2013-12-30 08:02:00,50.7,46.7,31.87,South,180,6.0,22.8,86,0.00,,,0.00,pywws,2013-12-30 08:02:00,
2013-12-30 08:07:00,50.7,46.7,31.83,South,180,3.1,6.9,86,0.00,,,0.00,pywws,2013-12-30 08:07:00,
2013-12-30 08:12:00,50.7,46.7,31.81,SE,135,6.0,13.6,86,0.00,,,0.00,pywws,2013-12-30 08:12:00,
2013-12-30 08:17:00,50.9,46.6,31.83,South,180,3.1,5.4,85,0.00,,,0.00,pywws,2013-12-30 08:17:00,
2013-12-30 08:22:00,50.9,46.6,31.81,SW,225,3.1,6.0,85,0.00,,,0.00,pywws,2013-12-30 08:22:00,
2013-12-30 08:32:00,50.5,46.2,31.80,NW,315,6.0,15.9,85,0.00,,,0.00,pywws,2013-12-30 08:32:00,
2013-12-30 08:37:00,50.7,46.4,31.81,South,180,4.5,10.7,85,0.00,,,0.00,pywws,2013-12-30 08:37:00,
2013-12-30 08:42:00,50.7,46.7,31.77,South,180,4.5,8.3,86,0.00,,,0.00,pywws,2013-12-30 08:42:00,
2013-12-30 08:47:00,50.5,46.5,31.76,NW,315,3.8,8.3,86,0.00,,,0.00,pywws,2013-12-30 08:47:00,
2013-12-30 08:52:00,50.5,46.5,31.77,South,180,5.4,8.3,86,0.00,,,0.00,pywws,2013-12-30 08:52:00,
2013-12-30 09:02:00,50.5,46.5,31.75,West,270,3.1,5.4,86,0.00,,,0.00,pywws,2013-12-30 09:02:00,
2013-12-30 09:07:00,50.7,46.7,31.74,SW,225,5.4,11.4,86,0.00,,,0.00,pywws,2013-12-30 09:07:00,
2013-12-30 09:12:00,50.7,46.7,31.72,South,180,6.9,15.9,86,0.00,,,0.00,pywws,2013-12-30 09:12:00,
2013-12-30 09:17:00,44.1,40.1,31.71,SW,225,5.4,8.3,86,0.00,,,0.00,pywws,2013-12-30 09:17:00,
2013-12-30 09:22:00,50.5,46.8,31.68,SW,225,5.4,11.4,87,0.00,,,0.00,pywws,2013-12-30 09:22:00,
2013-12-30 09:32:00,50.7,46.7,31.71,West,270,3.1,6.0,86,0.00,,,0.00,pywws,2013-12-30 09:32:00,
2013-12-30 09:37:00,50.7,46.7,31.69,SW,225,5.4,9.2,86,0.00,,,0.00,pywws,2013-12-30 09:37:00,
2013-12-30 09:42:00,50.7,46.7,31.68,NW,315,4.5,11.4,86,0.00,,,0.00,pywws,2013-12-30 09:42:00,
2013-12-30 09:47:00,50.7,46.7,31.67,South,180,6.9,12.1,86,0.00,,,0.00,pywws,2013-12-30 09:47:00,
2013-12-30 09:52:00,50.7,47.0,31.68,SE,135,5.4,16.8,87,0.00,,,0.00,pywws,2013-12-30 09:52:00,
2013-12-30 10:02:00,50.5,47.1,31.63,South,180,3.8,9.2,88,0.01,,,0.01,pywws,2013-12-30 10:02:00,
2013-12-30 10:07:00,50.5,47.1,31.57,South,180,3.8,6.9,88,0.01,,,0.01,pywws,2013-12-30 10:07:00,
2013-12-30 10:12:00,50.4,47.2,31.54,South,180,5.4,17.5,89,0.01,,,0.01,pywws,2013-12-30 10:12:00,
2013-12-30 10:17:00,50.2,47.1,31.51,SW,225,3.1,5.4,89,0.01,,,0.01,pywws,2013-12-30 10:17:00,
2013-12-30 10:22:00,50.2,47.4,31.50,South,180,6.9,15.2,90,0.02,,,0.02,pywws,2013-12-30 10:22:00,
2013-12-30 10:32:00,50.2,47.4,31.49,SSW,202,6.0,12.1,90,0.02,,,0.02,pywws,2013-12-30 10:32:00,
2013-12-30 10:37:00,50.2,47.7,31.47,SW,225,5.4,9.8,91,0.04,,,0.04,pywws,2013-12-30 10:37:00,
2013-12-30 10:42:00,50.0,47.5,31.45,NNW,338,3.8,7.6,91,0.04,,,0.04,pywws,2013-12-30 10:42:00,
2013-12-30 10:47:00,50.0,47.5,31.41,SW,225,6.9,13.6,91,0.04,,,0.04,pywws,2013-12-30 10:47:00,
2013-12-30 10:52:00,50.0,47.5,31.40,SW,225,3.1,6.0,91,0.05,,,0.05,pywws,2013-12-30 10:52:00,
2013-12-30 11:02:00,50.0,47.5,31.38,WNW,292,6.9,12.1,91,0.04,,,0.05,pywws,2013-12-30 11:02:00,
2013-12-30 11:07:00,49.8,47.3,31.34,North,0,5.4,15.2,91,0.04,,,0.05,pywws,2013-12-30 11:07:00,
2013-12-30 11:12:00,49.8,47.3,31.33,South,180,5.4,9.8,91,0.05,,,0.06,pywws,2013-12-30 11:12:00,
2013-12-30 11:17:00,49.8,47.3,31.31,North,0,6.9,15.2,91,0.06,,,0.07,pywws,2013-12-30 11:17:00,
2013-12-30 11:22:00,49.8,47.3,31.31,SW,225,6.0,15.2,91,0.05,,,0.07,pywws,2013-12-30 11:22:00,
2013-12-30 11:32:00,49.8,47.3,31.26,NW,315,5.4,12.1,91,0.06,,,0.08,pywws,2013-12-30 11:32:00,
2013-12-30 11:37:00,49.6,47.1,31.27,SE,135,4.5,12.1,91,0.05,,,0.08,pywws,2013-12-30 11:37:00,
2013-12-30 11:42:00,49.8,47.3,31.25,SE,135,5.4,18.3,91,0.06,,,0.09,pywws,2013-12-30 11:42:00,
2013-12-30 11:47:00,50.0,47.5,31.24,SW,225,6.0,10.7,91,0.06,,,0.09,pywws,2013-12-30 11:47:00,
2013-12-30 11:52:00,50.0,47.5,31.25,South,180,3.8,7.6,91,0.05,,,0.09,pywws,2013-12-30 11:52:00,
2013-12-30 12:02:00,49.8,47.3,31.23,South,180,6.0,13.6,91,0.06,,,0.11,pywws,2013-12-30 12:02:00,
2013-12-30 12:07:00,50.2,47.7,31.22,South,180,5.4,9.8,91,0.06,,,0.11,pywws,2013-12-30 12:07:00,
2013-12-30 12:12:00,49.8,47.3,31.23,SW,225,3.8,6.9,91,0.05,,,0.11,pywws,2013-12-30 12:12:00,
2013-12-30 12:17:00,50.2,47.7,31.21,SW,225,4.5,9.2,91,0.04,,,0.11,pywws,2013-12-30 12:17:00,
2013-12-30 12:22:00,50.0,47.5,31.21,SW,225,6.0,9.8,91,0.04,,,0.11,pywws,2013-12-30 12:22:00,
2013-12-30 12:32:00,50.2,47.7,31.22,NW,315,3.1,5.4,91,0.02,,,0.11,pywws,2013-12-30 12:32:00,
2013-12-30 12:37:00,50.2,47.7,31.23,SE,135,3.1,10.7,91,0.02,,,0.11,pywws,2013-12-30 12:37:00,
2013-12-30 12:42:00,50.2,47.7,31.22,South,180,3.8,6.0,91,0.02,,,0.12,pywws,2013-12-30 12:42:00,
2013-12-30 12:47:00,50.2,47.9,31.22,North,0,3.1,6.0,92,0.04,,,0.13,pywws,2013-12-30 12:47:00,
2013-12-30 12:52:00,50.0,48.1,31.25,SW,225,2.2,3.8,93,0.05,,,0.14,pywws,2013-12-30 12:52:00,
2013-12-30 13:02:00,50.2,48.2,31.27,South,180,3.1,7.6,93,0.04,,,0.14,pywws,2013-12-30 13:02:00,
2013-12-30 13:07:00,50.0,47.8,31.31,South,180,2.2,4.5,92,0.04,,,0.14,pywws,2013-12-30 13:07:00,
2013-12-30 13:12:00,49.8,46.4,31.33,South,180,2.2,6.0,88,0.05,,,0.15,pywws,2013-12-30 13:12:00,
2013-12-30 13:17:00,50.0,46.3,31.33,NW,315,3.8,8.3,87,0.05,,,0.15,pywws,2013-12-30 13:17:00,
2013-12-30 13:22:00,50.4,46.6,31.35,SW,225,3.1,5.4,87,0.05,,,0.15,pywws,2013-12-30 13:22:00,
2013-12-30 13:32:00,50.5,45.9,31.35,West,270,2.2,6.0,84,0.05,,,0.15,pywws,2013-12-30 13:32:00,
2013-12-30 13:37:00,50.4,44.8,31.41,West,270,3.8,6.9,81,0.05,,,0.15,pywws,2013-12-30 13:37:00,
2013-12-30 13:42:00,50.4,44.4,31.43,NW,315,5.4,8.3,80,0.04,,,0.15,pywws,2013-12-30 13:42:00,
2013-12-30 13:47:00,50.2,43.3,31.46,SW,225,5.4,9.2,77,0.02,,,0.15,pywws,2013-12-30 13:47:00,
2013-12-30 13:52:00,49.6,42.4,31.49,NW,315,5.4,8.3,76,0.01,,,0.15,pywws,2013-12-30 13:52:00,
2013-12-30 14:02:00,49.5,42.9,31.53,NW,315,3.8,6.9,78,0.01,,,0.15,pywws,2013-12-30 14:02:00,
2013-12-30 14:07:00,49.3,42.7,31.56,West,270,2.2,4.5,78,0.01,,,0.15,pywws,2013-12-30 14:07:00,
2013-12-30 14:12:00,48.9,42.4,31.58,SE,135,3.8,7.6,78,0.00,,,0.15,pywws,2013-12-30 14:12:00,
2013-12-30 14:17:00,48.7,41.9,31.61,South,180,5.4,9.8,77,0.00,,,0.15,pywws,2013-12-30 14:17:00,
2013-12-30 14:22:00,48.7,42.2,31.63,SW,225,3.8,7.6,78,0.00,,,0.15,pywws,2013-12-30 14:22:00,
2013-12-30 14:32:00,48.6,42.0,31.66,NW,315,2.2,3.8,78,0.00,,,0.15,pywws,2013-12-30 14:32:00,
2013-12-30 14:37:00,48.7,42.5,31.71,SW,225,1.6,5.4,79,0.00,,,0.15,pywws,2013-12-30 14:37:00,
2013-12-30 14:42:00,48.9,42.4,31.71,SW,225,3.1,5.4,78,0.00,,,0.15,pywws,2013-12-30 14:42:00,
2013-12-30 14:47:00,48.9,42.4,31.74,North,0,2.2,4.5,78,0.00,,,0.15,pywws,2013-12-30 14:47:00,
2013-12-30 14:52:00,48.9,42.0,31.75,South,180,3.1,5.4,77,0.00,,,0.15,pywws,2013-12-30 14:52:00,
2013-12-30 15:02:00,48.9,42.4,31.77,West,270,2.2,4.5,78,0.00,,,0.15,pywws,2013-12-30 15:02:00,
2013-12-30 15:07:00,48.9,42.0,31.80,South,180,2.2,7.6,77,0.00,,,0.15,pywws,2013-12-30 15:07:00,
2013-12-30 15:12:00,48.6,41.7,31.81,SW,225,3.1,5.4,77,0.00,,,0.15,pywws,2013-12-30 15:12:00,
2013-12-30 15:17:00,48.4,41.5,31.82,South,180,1.6,4.5,77,0.00,,,0.15,pywws,2013-12-30 15:17:00,
2013-12-30 15:22:00,48.4,41.8,31.82,SW,225,2.2,6.0,78,0.00,,,0.15,pywws,2013-12-30 15:22:00,
2013-12-30 15:32:00,48.6,42.0,31.82,West,270,0.7,5.4,78,0.00,,,0.15,pywws,2013-12-30 15:32:00,
2013-12-30 15:37:00,48.0,41.5,31.85,SW,225,1.6,4.5,78,0.00,,,0.15,pywws,2013-12-30 15:37:00,
2013-12-30 15:42:00,47.8,41.3,31.86,SW,225,1.6,4.5,78,0.00,,,0.15,pywws,2013-12-30 15:42:00,
2013-12-30 15:47:00,47.5,41.3,31.87,North,-999,0.0,2.2,79,0.00,,,0.15,pywws,2013-12-30 15:47:00,
2013-12-30 15:52:00,47.3,41.4,31.87,West,270,0.7,1.6,80,0.00,,,0.15,pywws,2013-12-30 15:52:00,
2013-12-30 15:57:00,47.1,41.6,31.90,South,180,1.6,5.4,81,0.00,,,0.15,pywws,2013-12-30 15:57:00,
2013-12-30 16:02:00,47.3,41.8,31.90,North,-999,0.0,1.6,81,0.00,,,0.15,pywws,2013-12-30 16:02:00,
2013-12-30 16:07:00,47.3,41.8,31.92,North,-999,0.0,1.6,81,0.00,,,0.15,pywws,2013-12-30 16:07:00,
2013-12-30 16:12:00,47.1,41.6,31.92,North,-999,0.0,1.6,81,0.00,,,0.15,pywws,2013-12-30 16:12:00,
2013-12-30 16:17:00,46.9,41.7,31.92,North,-999,0.0,1.6,82,0.00,,,0.15,pywws,2013-12-30 16:17:00,
2013-12-30 16:22:00,46.8,41.6,31.92,North,-999,0.0,0.0,82,0.00,,,0.15,pywws,2013-12-30 16:22:00,
2013-12-30 16:32:00,46.2,41.0,31.93,North,-999,0.0,0.7,82,0.00,,,0.15,pywws,2013-12-30 16:32:00,
2013-12-30 16:37:00,45.7,41.1,31.98,North,-999,0.0,1.6,84,0.00,,,0.15,pywws,2013-12-30 16:37:00,
2013-12-30 16:42:00,45.5,41.0,31.98,North,-999,0.0,0.7,84,0.00,,,0.15,pywws,2013-12-30 16:42:00,
2013-12-30 16:47:00,45.3,40.8,31.99,North,-999,0.0,0.0,84,0.00,,,0.15,pywws,2013-12-30 16:47:00,
2013-12-30 16:52:00,44.8,40.2,32.00,North,-999,0.0,1.6,84,0.00,,,0.15,pywws,2013-12-30 16:52:00,
2013-12-30 17:02:00,44.6,40.4,32.00,North,-999,0.0,1.6,85,0.00,,,0.15,pywws,2013-12-30 17:02:00,
2013-12-30 17:07:00,44.8,40.6,32.02,West,270,0.7,4.5,85,0.00,,,0.15,pywws,2013-12-30 17:07:00,
2013-12-30 17:12:00,44.8,40.6,32.03,North,-999,0.0,0.7,85,0.00,,,0.15,pywws,2013-12-30 17:12:00,
2013-12-30 17:17:00,44.6,40.4,32.02,South,180,0.7,2.2,85,0.00,,,0.15,pywws,2013-12-30 17:17:00,
2013-12-30 17:22:00,44.8,40.6,32.01,North,-999,0.0,0.7,85,0.00,,,0.15,pywws,2013-12-30 17:22:00,
2013-12-30 17:32:00,44.8,40.6,31.99,North,-999,0.0,0.7,85,0.00,,,0.15,pywws,2013-12-30 17:32:00,
2013-12-30 17:37:00,44.6,40.4,31.99,North,-999,0.0,1.6,85,0.00,,,0.15,pywws,2013-12-30 17:37:00,
2013-12-30 17:42:00,44.6,40.4,32.00,North,-999,0.0,2.2,85,0.00,,,0.15,pywws,2013-12-30 17:42:00,
2013-12-30 17:47:00,44.6,40.4,31.99,South,180,0.7,2.2,85,0.00,,,0.15,pywws,2013-12-30 17:47:00,
2013-12-30 17:52:00,44.4,40.2,31.98,North,-999,0.0,2.2,85,0.00,,,0.15,pywws,2013-12-30 17:52:00,
2013-12-30 17:57:00,44.4,40.5,31.98,SW,225,0.7,2.2,86,0.00,,,0.15,pywws,2013-12-30 17:57:00,
2013-12-30 18:02:00,44.4,40.2,31.98,South,180,1.6,3.8,85,0.00,,,0.15,pywws,2013-12-30 18:02:00,
2013-12-30 18:07:00,44.4,40.2,31.98,South,180,1.6,3.8,85,0.00,,,0.15,pywws,2013-12-30 18:07:00,
2013-12-30 18:12:00,44.4,40.5,31.99,North,-999,0.0,0.7,86,0.00,,,0.15,pywws,2013-12-30 18:12:00,
2013-12-30 18:17:00,44.4,40.5,32.01,North,-999,0.0,2.2,86,0.00,,,0.15,pywws,2013-12-30 18:17:00,
2013-12-30 18:22:00,44.4,40.5,32.01,SW,225,0.7,2.2,86,0.00,,,0.15,pywws,2013-12-30 18:22:00,
2013-12-30 18:32:00,44.4,40.5,32.03,West,270,0.7,3.1,86,0.00,,,0.15,pywws,2013-12-30 18:32:00,
2013-12-30 18:37:00,44.2,40.6,32.02,North,-999,0.0,0.7,87,0.00,,,0.15,pywws,2013-12-30 18:37:00,
2013-12-30 18:42:00,44.2,40.6,32.05,South,180,0.7,2.2,87,0.00,,,0.15,pywws,2013-12-30 18:42:00,
2013-12-30 18:47:00,44.2,40.9,32.05,SW,225,0.7,2.2,88,0.00,,,0.15,pywws,2013-12-30 18:47:00,
2013-12-30 18:52:00,44.4,40.8,32.03,North,-999,0.0,1.6,87,0.00,,,0.15,pywws,2013-12-30 18:52:00,
2013-12-30 19:02:00,44.2,40.6,32.02,South,180,0.7,2.2,87,0.00,,,0.15,pywws,2013-12-30 19:02:00,
2013-12-30 19:07:00,44.4,40.8,31.98,South,180,1.6,3.8,87,0.00,,,0.15,pywws,2013-12-30 19:07:00,
2013-12-30 19:12:00,44.2,40.9,31.98,SW,225,1.6,5.4,88,0.00,,,0.15,pywws,2013-12-30 19:12:00,
2013-12-30 19:17:00,51.3,47.8,31.98,SW,225,0.7,1.6,88,0.00,,,0.15,pywws,2013-12-30 19:17:00,
2013-12-30 19:22:00,44.1,40.7,31.96,SW,225,0.7,1.6,88,0.00,,,0.15,pywws,2013-12-30 19:22:00,
2013-12-30 19:32:00,43.9,40.6,31.97,North,-999,0.0,1.6,88,0.00,,,0.15,pywws,2013-12-30 19:32:00,
2013-12-30 19:37:00,43.7,40.7,31.97,North,-999,0.0,2.2,89,0.00,,,0.15,pywws,2013-12-30 19:37:00,
2013-12-30 19:42:00,43.5,40.5,31.98,North,-999,0.0,1.6,89,0.00,,,0.15,pywws,2013-12-30 19:42:00,
2013-12-30 19:47:00,43.5,40.8,31.97,North,-999,0.0,1.6,90,0.00,,,0.15,pywws,2013-12-30 19:47:00,
2013-12-30 19:52:00,43.5,40.8,31.98,North,-999,0.0,2.2,90,0.00,,,0.15,pywws,2013-12-30 19:52:00,
2013-12-30 20:02:00,43.5,40.8,31.99,North,-999,0.0,1.6,90,0.00,,,0.15,pywws,2013-12-30 20:02:00,
2013-12-30 20:07:00,43.5,40.8,32.00,South,180,0.7,3.1,90,0.00,,,0.15,pywws,2013-12-30 20:07:00,
2013-12-30 20:12:00,43.3,40.6,32.00,South,180,0.7,1.6,90,0.00,,,0.15,pywws,2013-12-30 20:12:00,
2013-12-30 20:17:00,43.5,41.1,32.01,North,-999,0.0,1.6,91,0.00,,,0.15,pywws,2013-12-30 20:17:00,
2013-12-30 20:22:00,43.5,41.1,32.03,North,-999,0.0,0.7,91,0.00,,,0.15,pywws,2013-12-30 20:22:00,
2013-12-30 20:32:00,43.3,40.9,32.03,North,-999,0.0,0.7,91,0.00,,,0.15,pywws,2013-12-30 20:32:00,
2013-12-30 20:37:00,43.2,40.7,32.01,North,-999,0.0,2.2,91,0.00,,,0.15,pywws,2013-12-30 20:37:00,
2013-12-30 20:42:00,43.2,40.7,32.01,North,-999,0.0,3.1,91,0.00,,,0.15,pywws,2013-12-30 20:42:00,
2013-12-30 20:47:00,43.2,40.7,32.02,North,-999,0.0,2.2,91,0.00,,,0.15,pywws,2013-12-30 20:47:00,
2013-12-30 20:52:00,43.2,41.0,32.04,North,-999,0.0,0.7,92,0.00,,,0.15,pywws,2013-12-30 20:52:00,
2013-12-30 21:02:00,43.2,41.0,32.05,North,-999,0.0,0.7,92,0.00,,,0.15,pywws,2013-12-30 21:02:00,
2013-12-30 21:07:00,43.2,41.0,32.08,North,-999,0.0,2.2,92,0.00,,,0.15,pywws,2013-12-30 21:07:00,
2013-12-30 21:12:00,43.0,40.8,32.09,North,-999,0.0,2.2,92,0.00,,,0.15,pywws,2013-12-30 21:12:00,
2013-12-30 21:17:00,43.0,40.8,32.09,South,180,0.7,1.6,92,0.00,,,0.15,pywws,2013-12-30 21:17:00,
2013-12-30 21:22:00,43.0,40.8,32.11,SW,225,1.6,4.5,92,0.00,,,0.15,pywws,2013-12-30 21:22:00,
2013-12-30 21:32:00,43.0,40.8,32.12,SW,225,0.7,2.2,92,0.00,,,0.15,pywws,2013-12-30 21:32:00,
2013-12-30 21:37:00,43.0,41.1,32.13,North,-999,0.0,3.1,93,0.00,,,0.15,pywws,2013-12-30 21:37:00,
2013-12-30 21:42:00,42.8,40.9,32.13,North,-999,0.0,1.6,93,0.00,,,0.15,pywws,2013-12-30 21:42:00,
2013-12-30 21:47:00,43.0,41.1,32.12,North,-999,0.0,1.6,93,0.00,,,0.15,pywws,2013-12-30 21:47:00,
2013-12-30 21:52:00,42.8,40.9,32.12,North,-999,0.0,2.2,93,0.00,,,0.15,pywws,2013-12-30 21:52:00,
2013-12-30 22:02:00,42.6,40.7,32.13,North,-999,0.0,1.6,93,0.00,,,0.15,pywws,2013-12-30 22:02:00,
2013-12-30 22:07:00,42.8,40.9,32.13,North,-999,0.0,1.6,93,0.00,,,0.15,pywws,2013-12-30 22:07:00,
2013-12-30 22:12:00,42.4,40.6,32.12,North,-999,0.0,0.7,93,0.00,,,0.15,pywws,2013-12-30 22:12:00,
2013-12-30 22:17:00,42.4,40.3,32.13,North,-999,0.0,0.0,92,0.00,,,0.15,pywws,2013-12-30 22:17:00,
2013-12-30 22:22:00,42.3,40.4,32.14,North,-999,0.0,0.7,93,0.00,,,0.15,pywws,2013-12-30 22:22:00,
2013-12-30 22:32:00,42.1,39.9,32.15,North,-999,0.0,0.7,92,0.00,,,0.15,pywws,2013-12-30 22:32:00,
2013-12-30 22:37:00,42.1,40.2,32.14,North,-999,0.0,0.0,93,0.00,,,0.15,pywws,2013-12-30 22:37:00,
2013-12-30 22:42:00,41.7,39.8,32.16,North,-999,0.0,1.6,93,0.00,,,0.15,pywws,2013-12-30 22:42:00,
2013-12-30 22:47:00,41.9,40.0,32.14,North,-999,0.0,0.0,93,0.00,,,0.15,pywws,2013-12-30 22:47:00,
2013-12-30 22:52:00,41.9,40.0,32.13,North,-999,0.0,1.6,93,0.00,,,0.15,pywws,2013-12-30 22:52:00,
2013-12-30 23:02:00,41.9,40.3,32.11,South,180,0.7,2.2,94,0.00,,,0.15,pywws,2013-12-30 23:02:00,
2013-12-30 23:07:00,42.1,40.5,32.12,North,-999,0.0,2.2,94,0.00,,,0.15,pywws,2013-12-30 23:07:00,
2013-12-30 23:12:00,42.4,40.8,32.11,North,-999,0.0,2.2,94,0.00,,,0.15,pywws,2013-12-30 23:12:00,
2013-12-30 23:17:00,42.1,40.5,32.12,North,-999,0.0,1.6,94,0.00,,,0.15,pywws,2013-12-30 23:17:00,
2013-12-30 23:22:00,42.1,40.5,32.10,North,-999,0.0,0.0,94,0.00,,,0.15,pywws,2013-12-30 23:22:00,
2013-12-30 23:32:00,42.1,40.5,32.10,North,-999,0.0,1.6,94,0.00,,,0.15,pywws,2013-12-30 23:32:00,
2013-12-30 23:37:00,42.3,40.7,32.09,North,-999,0.0,1.6,94,0.00,,,0.15,pywws,2013-12-30 23:37:00,
2013-12-30 23:42:00,42.1,40.5,32.10,South,180,0.7,1.6,94,0.00,,,0.15,pywws,2013-12-30 23:42:00,
2013-12-30 23:47:00,42.4,40.8,32.11,North,-999,0.0,1.6,94,0.00,,,0.15,pywws,2013-12-30 23:47:00,
2013-12-30 23:52:00,42.1,40.8,32.10,SW,225,1.6,3.8,95,0.00,,,0.15,pywws,2013-12-30 23:52:00,